Terminal Aerodrome Forecast
Issued by NWS Houston/Galveston, TX

Home | Current Version | Previous Version | Text Only | Print | Product List | Glossary On
Versions: 1 2 3 4 5 6 7 8 9 10 11 12 13 14 15 16 17 18 19
000
FTUS44 KHGX 240520
TAFGLS
TAF
KGLS 240520Z 2406/2506 20014KT P6SM BKN150
     FM240800 20014KT P6SM SCT025 BKN150
     FM241400 21013KT P6SM FEW035 SCT150
     FM242200 19011KT P6SM FEW035 SCT250=

USA.gov is the U.S. government's official web portal to all federal, state and local government web resources and services.